Ganja Airport


Codes: UBBG/KVD
Name: Ganja Airport
City: Ganja
Country: Azerbaijan
Elevation: 1083 ft.
Wikipedia:

Photos at Ganja Airport


   Photos courtesy of SpottingLog. You can add your own sightings and photos by signing up for a free trial today.



No photos found.

Weather at Ganja Airport


Time (UTC)DescriptionTempratureWindCloud coverageVisibilityPressureHumidity
17-Jun-2024 06:00Broken Clouds26°C7 mph, NW51%10000m1013hPa62%
17-Jun-2024 09:00Few Clouds29°C4 mph, E17%10000m1013hPa50%
17-Jun-2024 12:00Scattered Clouds35°C11 mph, E29%10000m1011hPa30%
17-Jun-2024 15:00Overcast Clouds33°C9 mph, SE100%10000m1011hPa33%
17-Jun-2024 18:00Overcast Clouds29°C4 mph, SW91%10000m1012hPa44%
17-Jun-2024 21:00Clear Sky27°C2 mph, SW0%10000m1013hPa49%
18-Jun-2024 00:00Clear Sky24°C4 mph, W0%10000m1014hPa59%
18-Jun-2024 03:00Clear Sky25°C4 mph, NW4%10000m1015hPa58%
18-Jun-2024 06:00Clear Sky29°C7 mph, NW2%10000m1015hPa48%
18-Jun-2024 09:00Scattered Clouds32°C4 mph, E39%10000m1014hPa36%
18-Jun-2024 12:00Broken Clouds36°C9 mph, NE63%10000m1011hPa24%
18-Jun-2024 15:00Broken Clouds34°C7 mph, E69%10000m1011hPa27%
18-Jun-2024 18:00Light Rain29°C11 mph, SW85%10000m1013hPa43%
18-Jun-2024 21:00Broken Clouds25°C4 mph, W83%10000m1015hPa50%
19-Jun-2024 00:00Light Rain24°C4 mph, W91%10000m1015hPa56%
19-Jun-2024 03:00Overcast Clouds24°C9 mph, NW96%10000m1015hPa56%
19-Jun-2024 06:00Overcast Clouds29°C9 mph, NW86%10000m1015hPa47%
19-Jun-2024 09:00Scattered Clouds32°C4 mph, N27%10000m1014hPa38%
19-Jun-2024 12:00Scattered Clouds34°C4 mph, NE46%10000m1012hPa31%
19-Jun-2024 15:00Overcast Clouds33°C7 mph, NE99%10000m1012hPa33%
19-Jun-2024 18:00Overcast Clouds29°C4 mph, SW100%10000m1013hPa41%
19-Jun-2024 21:00Broken Clouds27°C4 mph, SW74%10000m1013hPa45%
20-Jun-2024 00:00Scattered Clouds25°C2 mph, SW37%10000m1014hPa51%
20-Jun-2024 03:00Clear Sky26°C4 mph, W1%10000m1014hPa49%
20-Jun-2024 06:00Clear Sky29°C4 mph, NW1%10000m1014hPa46%
20-Jun-2024 09:00Clear Sky33°C4 mph, NE0%10000m1012hPa36%
20-Jun-2024 12:00Clear Sky35°C4 mph, N0%10000m1009hPa29%
20-Jun-2024 15:00Scattered Clouds35°C7 mph, NE35%10000m1009hPa30%
20-Jun-2024 18:00Light Rain30°C4 mph, SW47%10000m1010hPa40%
20-Jun-2024 21:00Light Rain27°C4 mph, NW76%10000m1011hPa50%
21-Jun-2024 00:00Light Rain24°C9 mph, NW88%10000m1012hPa64%
21-Jun-2024 03:00Light Rain24°C7 mph, NW100%10000m1013hPa66%
21-Jun-2024 06:00Light Rain28°C7 mph, NW63%10000m1013hPa50%
21-Jun-2024 09:00Clear Sky32°C4 mph, N0%10000m1011hPa38%
21-Jun-2024 12:00Clear Sky34°C4 mph, N0%10000m1009hPa31%
21-Jun-2024 15:00Clear Sky33°C7 mph, NE0%10000m1008hPa31%
21-Jun-2024 18:00Clear Sky30°C4 mph, S0%10000m1009hPa37%
21-Jun-2024 21:00Clear Sky27°C4 mph, SE2%10000m1009hPa45%
22-Jun-2024 00:00Clear Sky25°C2 mph, W1%10000m1009hPa53%
22-Jun-2024 03:00Clear Sky26°C7 mph, W1%10000m1010hPa56%